Crossville, TN

3:12 PM CDT on June 30, 2015 (GMT -0500)
Crossville City Hall | | Change Station
CLOSE
Current Station
Personal Weather Station
Location: Crossville, TN
Elevation: 1867 ft
Nearby Weather Stations
Active Advisory: Severe Thunderstorm Watch

Elev 1867 ft 35.95 °N, 85.03 °W | Updated 44 seconds ago

Light Thunderstorms and Rain
Light Thunderstorm Rain
72.7 °F
Feels Like 72 °F
N
4.0
Wind Variable Wind from WSW
Gusts 19.0 mph

Today
High -- | Low -- °F
--% Chance of Precip.
Yesterday
High -- | Low -- °F
Precip. -- in
5:26 AM 8:00 PM
Waxing Gibbous, 98% visible
Pressure 29.92 in
Visibility 7.0 miles
Clouds Scattered Clouds 3300 ft
Mostly Cloudy 8000 ft
Overcast 10000 ft
Heat Index 72 °F
Dew Point 67 °F
Humidity 82%
Rainfall in
Snow Depth Not available.
UV 3 out of 12
Pollen 2.80 out of 12
Air Quality Not available.
Flu Activity Sporadic
METAR KCSV 301953Z AUTO 29009KT 7SM -TSRA SCT033 BKN080 OVC100 23/19 A2997 RMK AO2 LTG DSNT NE RAB43 TSB44 SLP130 P0001 T02330194

More Conditions Fewer Conditions

Pressure 29.92 in
Visibility 7.0 miles
Clouds Scattered Clouds 3300 ft
Mostly Cloudy 8000 ft
Overcast 10000 ft
Heat Index 72 °F
Dew Point 67 °F
Humidity 82%
Rainfall in
Snow Depth Not available.
UV 3 out of 12
Pollen 2.80 out of 12
Air Quality Not available.
Flu Activity Sporadic
METAR KCSV 301953Z AUTO 29009KT 7SM -TSRA SCT033 BKN080 OVC100 23/19 A2997 RMK AO2 LTG DSNT NE RAB43 TSB44 SLP130 P0001 T02330194

More Conditions Fewer Conditions

10-Day Weather Forecast

×

Almanac

Astronomy

Jun. 30, 2015 Rise Set
Actual Time
Civil Twilight
Nautical Twilight
Astronomical Twilight
Moon
Length of Visible Light
Length of Day
Tomorrow will be .
, % of the Moon is Illuminated

Today's Extremes

State Highs State Lows

Community

WunderPhotos

Upload Photos

1,834,065 photos uploaded!

WunderBlogs® & News

Nearby

Air Quality

  Air Quality AQ Index Pollutant
Not available.

Snow Depth

Station Depth Elevation

Earthquake Activity

City Distance Mag. Time & Date
Minimum magnitude displayed is 2.5.

Coastal Water Temperatures

Place Temperature

Stations

Nearby Weather Stations

Station Location Temp. Windchill Dew Point Humidity Wind Precip. Elev Updated Type
                   
Severe Thunderstorm Watch
Statement as of 4:03 PM EDT on June 30, 2015

Severe Thunderstorm Watch 373 remains in effect until 900 PM EDT

TN
. Tennessee counties included are

Anderson Bledsoe Blount
Bradley Campbell Cannon
Carter Claiborne Cocke
Coffee Cumberland De Kalb
Fentress Grainger Greene
Grundy Hamblen Hamilton
Hancock Hawkins Jefferson
Johnson Knox Loudon
McMinn Marion Meigs
Monroe Morgan Overton
Pickett Polk Putnam
Rhea Roane Scott
Sequatchie Sevier Sullivan
Unicoi Union Van Buren
Warren Washington white